sensor_id;sensor_type;location;lat;lon;timestamp;temperature;humidity
5520;DHT22;2782;52.362;10.012;2023-08-06T00:00:30;20.70;87.40
5520;DHT22;2782;52.362;10.012;2023-08-06T00:01:31;20.70;88.20
5520;DHT22;2782;52.362;10.012;2023-08-06T00:02:33;20.70;87.40
5520;DHT22;2782;52.362;10.012;2023-08-06T00:03:35;20.70;87.50
5520;DHT22;2782;52.362;10.012;2023-08-06T00:04:36;20.70;87.40
5520;DHT22;2782;52.362;10.012;2023-08-06T00:05:37;20.60;87.40
5520;DHT22;2782;52.362;10.012;2023-08-06T00:06:42;20.60;87.40
5520;DHT22;2782;52.362;10.012;2023-08-06T00:07:43;20.70;87.50
5520;DHT22;2782;52.362;10.012;2023-08-06T00:08:44;20.70;87.50
5520;DHT22;2782;52.362;10.012;2023-08-06T00:09:45;20.60;87.40
5520;DHT22;2782;52.362;10.012;2023-08-06T00:10:47;20.70;87.50
5520;DHT22;2782;52.362;10.012;2023-08-06T00:11:48;20.60;87.30
5520;DHT22;2782;52.362;10.012;2023-08-06T00:12:50;20.60;87.30
5520;DHT22;2782;52.362;10.012;2023-08-06T00:13:51;20.70;87.50
5520;DHT22;2782;52.362;10.012;2023-08-06T00:14:53;20.60;87.30
5520;DHT22;2782;52.362;10.012;2023-08-06T00:15:54;20.60;88.00
5520;DHT22;2782;52.362;10.012;2023-08-06T00:16:55;20.70;87.40
5520;DHT22;2782;52.362;10.012;2023-08-06T00:17:56;20.60;87.40
5520;DHT22;2782;52.362;10.012;2023-08-06T00:18:59;20.60;87.40
5520;DHT22;2782;52.362;10.012;2023-08-06T00:20:00;20.60;87.40
5520;DHT22;2782;52.362;10.012;2023-08-06T00:21:05;20.60;87.30
5520;DHT22;2782;52.362;10.012;2023-08-06T00:22:05;20.60;87.30
5520;DHT22;2782;52.362;10.012;2023-08-06T00:23:07;20.60;87.40
5520;DHT22;2782;52.362;10.012;2023-08-06T00:24:08;20.60;87.40
5520;DHT22;2782;52.362;10.012;2023-08-06T00:25:10;20.60;87.40
5520;DHT22;2782;52.362;10.012;2023-08-06T00:26:10;20.60;87.40
5520;DHT22;2782;52.362;10.012;2023-08-06T00:27:12;20.60;87.40
5520;DHT22;2782;52.362;10.012;2023-08-06T00:28:13;20.60;87.30
5520;DHT22;2782;52.362;10.012;2023-08-06T00:29:14;20.60;87.40
5520;DHT22;2782;52.362;10.012;2023-08-06T00:30:15;20.60;87.40
5520;DHT22;2782;52.362;10.012;2023-08-06T00:31:17;20.60;87.40
5520;DHT22;2782;52.362;10.012;2023-08-06T00:32:18;20.60;87.40
5520;DHT22;2782;52.362;10.012;2023-08-06T00:33:19;20.60;87.40
5520;DHT22;2782;52.362;10.012;2023-08-06T00:34:21;20.70;87.50
5520;DHT22;2782;52.362;10.012;2023-08-06T00:35:23;20.60;87.50
5520;DHT22;2782;52.362;10.012;2023-08-06T00:36:24;20.60;87.40
5520;DHT22;2782;52.362;10.012;2023-08-06T00:37:25;20.60;87.40
5520;DHT22;2782;52.362;10.012;2023-08-06T00:38:26;20.60;87.40
5520;DHT22;2782;52.362;10.012;2023-08-06T00:39:28;20.60;87.40
5520;DHT22;2782;52.362;10.012;2023-08-06T00:40:28;20.60;87.50
5520;DHT22;2782;52.362;10.012;2023-08-06T00:41:31;20.60;87.60
5520;DHT22;2782;52.362;10.012;2023-08-06T00:42:31;20.60;87.60
5520;DHT22;2782;52.362;10.012;2023-08-06T00:43:33;20.60;87.60
5520;DHT22;2782;52.362;10.012;2023-08-06T00:44:34;20.60;87.60
5520;DHT22;2782;52.362;10.012;2023-08-06T00:45:37;20.60;87.60
5520;DHT22;2782;52.362;10.012;2023-08-06T00:46:38;20.60;87.60
5520;DHT22;2782;52.362;10.012;2023-08-06T00:47:40;20.60;87.60
5520;DHT22;2782;52.362;10.012;2023-08-06T00:48:41;20.60;87.70
5520;DHT22;2782;52.362;10.012;2023-08-06T00:49:44;20.60;87.60
5520;DHT22;2782;52.362;10.012;2023-08-06T00:50:45;20.60;87.70
5520;DHT22;2782;52.362;10.012;2023-08-06T00:51:47;20.60;87.60
5520;DHT22;2782;52.362;10.012;2023-08-06T00:52:48;20.60;87.60
5520;DHT22;2782;52.362;10.012;2023-08-06T00:53:50;20.60;87.60
5520;DHT22;2782;52.362;10.012;2023-08-06T00:54:51;20.60;87.60
5520;DHT22;2782;52.362;10.012;2023-08-06T00:55:53;20.60;87.60
5520;DHT22;2782;52.362;10.012;2023-08-06T00:56:54;20.60;87.60
5520;DHT22;2782;52.362;10.012;2023-08-06T00:57:58;20.60;87.60
5520;DHT22;2782;52.362;10.012;2023-08-06T00:58:58;20.60;87.60
5520;DHT22;2782;52.362;10.012;2023-08-06T01:00:00;20.60;87.60
5520;DHT22;2782;52.362;10.012;2023-08-06T01:01:01;20.60;87.50
5520;DHT22;2782;52.362;10.012;2023-08-06T01:02:02;20.60;87.50
5520;DHT22;2782;52.362;10.012;2023-08-06T01:03:03;20.60;87.60
5520;DHT22;2782;52.362;10.012;2023-08-06T01:04:05;20.60;87.60
5520;DHT22;2782;52.362;10.012;2023-08-06T01:05:07;20.60;87.60
5520;DHT22;2782;52.362;10.012;2023-08-06T01:06:09;20.60;87.50
5520;DHT22;2782;52.362;10.012;2023-08-06T01:07:18;20.60;87.50
5520;DHT22;2782;52.362;10.012;2023-08-06T01:08:30;20.60;87.50
5520;DHT22;2782;52.362;10.012;2023-08-06T01:09:57;20.60;87.50
5520;DHT22;2782;52.362;10.012;2023-08-06T01:11:12;20.60;87.60
5520;DHT22;2782;52.362;10.012;2023-08-06T01:12:21;20.60;87.60
5520;DHT22;2782;52.362;10.012;2023-08-06T01:13:32;20.60;87.60
5520;DHT22;2782;52.362;10.012;2023-08-06T01:14:40;20.60;87.60
5520;DHT22;2782;52.362;10.012;2023-08-06T01:15:50;20.60;87.70
5520;DHT22;2782;52.362;10.012;2023-08-06T01:16:54;20.60;87.70
5520;DHT22;2782;52.362;10.012;2023-08-06T01:17:57;20.60;87.70
5520;DHT22;2782;52.362;10.012;2023-08-06T01:18:58;20.60;87.70
5520;DHT22;2782;52.362;10.012;2023-08-06T01:20:00;20.60;87.70
5520;DHT22;2782;52.362;10.012;2023-08-06T01:21:02;20.60;87.80
5520;DHT22;2782;52.362;10.012;2023-08-06T01:22:04;20.60;87.70
5520;DHT22;2782;52.362;10.012;2023-08-06T01:23:05;20.50;87.60
5520;DHT22;2782;52.362;10.012;2023-08-06T01:24:07;20.60;87.70
5520;DHT22;2782;52.362;10.012;2023-08-06T01:25:08;20.60;87.60
5520;DHT22;2782;52.362;10.012;2023-08-06T01:26:14;20.60;87.60
5520;DHT22;2782;52.362;10.012;2023-08-06T01:27:21;20.60;87.70
5520;DHT22;2782;52.362;10.012;2023-08-06T01:28:30;20.60;87.70
5520;DHT22;2782;52.362;10.012;2023-08-06T01:29:36;20.60;87.70
5520;DHT22;2782;52.362;10.012;2023-08-06T01:30:41;20.60;87.60
5520;DHT22;2782;52.362;10.012;2023-08-06T01:31:43;20.60;87.70
5520;DHT22;2782;52.362;10.012;2023-08-06T01:32:49;20.60;87.70
5520;DHT22;2782;52.362;10.012;2023-08-06T01:33:53;20.60;87.60
5520;DHT22;2782;52.362;10.012;2023-08-06T01:34:59;20.60;87.80
5520;DHT22;2782;52.362;10.012;2023-08-06T01:36:02;20.60;87.80
5520;DHT22;2782;52.362;10.012;2023-08-06T01:37:05;20.60;87.80
5520;DHT22;2782;52.362;10.012;2023-08-06T01:38:06;20.60;87.70
5520;DHT22;2782;52.362;10.012;2023-08-06T01:39:08;20.60;87.90
5520;DHT22;2782;52.362;10.012;2023-08-06T01:40:10;20.60;87.90
5520;DHT22;2782;52.362;10.012;2023-08-06T01:41:12;20.60;87.80
5520;DHT22;2782;52.362;10.012;2023-08-06T01:42:12;20.60;87.80
5520;DHT22;2782;52.362;10.012;2023-08-06T01:43:14;20.60;87.80
5520;DHT22;2782;52.362;10.012;2023-08-06T01:44:16;20.60;87.80
5520;DHT22;2782;52.362;10.012;2023-08-06T01:45:17;20.60;87.80
5520;DHT22;2782;52.362;10.012;2023-08-06T01:46:18;20.60;87.90
5520;DHT22;2782;52.362;10.012;2023-08-06T01:47:20;20.60;88.40
5520;DHT22;2782;52.362;10.012;2023-08-06T01:48:21;20.60;87.80
5520;DHT22;2782;52.362;10.012;2023-08-06T01:49:22;20.60;87.80
5520;DHT22;2782;52.362;10.012;2023-08-06T01:50:23;20.60;87.80
5520;DHT22;2782;52.362;10.012;2023-08-06T01:51:26;20.60;87.80
5520;DHT22;2782;52.362;10.012;2023-08-06T01:52:27;20.60;87.80
5520;DHT22;2782;52.362;10.012;2023-08-06T01:53:28;20.60;87.80
5520;DHT22;2782;52.362;10.012;2023-08-06T01:54:29;20.60;87.80
5520;DHT22;2782;52.362;10.012;2023-08-06T01:55:30;20.60;87.90
5520;DHT22;2782;52.362;10.012;2023-08-06T01:56:31;20.60;87.70
5520;DHT22;2782;52.362;10.012;2023-08-06T01:57:32;20.60;88.40
5520;DHT22;2782;52.362;10.012;2023-08-06T01:58:34;20.60;87.80
5520;DHT22;2782;52.362;10.012;2023-08-06T01:59:35;20.60;87.70
5520;DHT22;2782;52.362;10.012;2023-08-06T02:00:36;20.60;87.80
5520;DHT22;2782;52.362;10.012;2023-08-06T02:01:37;20.60;87.80
5520;DHT22;2782;52.362;10.012;2023-08-06T02:02:39;20.60;87.70
5520;DHT22;2782;52.362;10.012;2023-08-06T02:03:41;20.60;87.70
5520;DHT22;2782;52.362;10.012;2023-08-06T02:04:43;20.60;87.80
5520;DHT22;2782;52.362;10.012;2023-08-06T02:05:43;20.60;87.80
5520;DHT22;2782;52.362;10.012;2023-08-06T02:06:47;20.60;87.80
5520;DHT22;2782;52.362;10.012;2023-08-06T02:07:48;20.60;87.80
5520;DHT22;2782;52.362;10.012;2023-08-06T02:08:50;20.60;87.80
5520;DHT22;2782;52.362;10.012;2023-08-06T02:09:50;20.60;87.70
5520;DHT22;2782;52.362;10.012;2023-08-06T02:10:52;20.60;87.80
5520;DHT22;2782;52.362;10.012;2023-08-06T02:11:54;20.60;87.70
5520;DHT22;2782;52.362;10.012;2023-08-06T02:12:55;20.60;87.70
5520;DHT22;2782;52.362;10.012;2023-08-06T02:13:56;20.60;87.70
5520;DHT22;2782;52.362;10.012;2023-08-06T02:14:58;20.60;87.70
5520;DHT22;2782;52.362;10.012;2023-08-06T02:15:58;20.60;87.70
5520;DHT22;2782;52.362;10.012;2023-08-06T02:17:00;20.60;87.70
5520;DHT22;2782;52.362;10.012;2023-08-06T02:18:01;20.60;87.70
5520;DHT22;2782;52.362;10.012;2023-08-06T02:19:01;20.60;87.80
5520;DHT22;2782;52.362;10.012;2023-08-06T02:20:04;20.60;87.70
5520;DHT22;2782;52.362;10.012;2023-08-06T02:21:05;20.60;87.80
5520;DHT22;2782;52.362;10.012;2023-08-06T02:22:08;20.60;87.80
5520;DHT22;2782;52.362;10.012;2023-08-06T02:23:09;20.60;87.80
5520;DHT22;2782;52.362;10.012;2023-08-06T02:24:11;20.60;87.80
5520;DHT22;2782;52.362;10.012;2023-08-06T02:25:11;20.60;87.80
5520;DHT22;2782;52.362;10.012;2023-08-06T02:26:13;20.60;87.80
5520;DHT22;2782;52.362;10.012;2023-08-06T02:27:14;20.60;87.80
5520;DHT22;2782;52.362;10.012;2023-08-06T02:28:15;20.60;87.80
5520;DHT22;2782;52.362;10.012;2023-08-06T02:29:17;20.60;87.80
5520;DHT22;2782;52.362;10.012;2023-08-06T02:30:18;20.60;87.80
5520;DHT22;2782;52.362;10.012;2023-08-06T02:31:19;20.60;87.80
5520;DHT22;2782;52.362;10.012;2023-08-06T02:32:20;20.60;87.80
5520;DHT22;2782;52.362;10.012;2023-08-06T02:33:21;20.60;87.80
5520;DHT22;2782;52.362;10.012;2023-08-06T02:34:22;20.60;87.70
5520;DHT22;2782;52.362;10.012;2023-08-06T02:35:23;20.60;87.90
5520;DHT22;2782;52.362;10.012;2023-08-06T02:36:24;20.60;87.80
5520;DHT22;2782;52.362;10.012;2023-08-06T02:37:33;20.60;87.80
5520;DHT22;2782;52.362;10.012;2023-08-06T02:38:34;20.60;87.80
5520;DHT22;2782;52.362;10.012;2023-08-06T02:39:35;20.60;87.90
5520;DHT22;2782;52.362;10.012;2023-08-06T02:40:43;20.60;87.90
5520;DHT22;2782;52.362;10.012;2023-08-06T02:41:45;20.60;87.90
5520;DHT22;2782;52.362;10.012;2023-08-06T02:42:46;20.60;87.90
5520;DHT22;2782;52.362;10.012;2023-08-06T02:43:47;20.60;88.50
5520;DHT22;2782;52.362;10.012;2023-08-06T02:44:48;20.60;87.90
5520;DHT22;2782;52.362;10.012;2023-08-06T02:45:50;20.60;87.80
5520;DHT22;2782;52.362;10.012;2023-08-06T02:46:51;20.60;87.90
5520;DHT22;2782;52.362;10.012;2023-08-06T02:47:52;20.60;87.90
5520;DHT22;2782;52.362;10.012;2023-08-06T02:48:53;20.60;87.90
5520;DHT22;2782;52.362;10.012;2023-08-06T02:49:53;20.60;87.90
5520;DHT22;2782;52.362;10.012;2023-08-06T02:50:57;20.60;87.90
5520;DHT22;2782;52.362;10.012;2023-08-06T02:51:59;20.60;87.80
5520;DHT22;2782;52.362;10.012;2023-08-06T02:53:02;20.60;87.90
5520;DHT22;2782;52.362;10.012;2023-08-06T02:54:03;20.60;87.90
5520;DHT22;2782;52.362;10.012;2023-08-06T02:55:05;20.60;87.80
5520;DHT22;2782;52.362;10.012;2023-08-06T02:56:06;20.60;88.50
5520;DHT22;2782;52.362;10.012;2023-08-06T02:57:08;20.60;87.80
5520;DHT22;2782;52.362;10.012;2023-08-06T02:58:08;20.60;87.90
5520;DHT22;2782;52.362;10.012;2023-08-06T02:59:09;20.60;87.80
5520;DHT22;2782;52.362;10.012;2023-08-06T03:00:11;20.60;87.80
5520;DHT22;2782;52.362;10.012;2023-08-06T03:01:12;20.60;87.80
5520;DHT22;2782;52.362;10.012;2023-08-06T03:02:14;20.60;87.90
5520;DHT22;2782;52.362;10.012;2023-08-06T03:03:15;20.60;87.90
5520;DHT22;2782;52.362;10.012;2023-08-06T03:04:17;20.60;87.90
5520;DHT22;2782;52.362;10.012;2023-08-06T03:05:18;20.60;87.90
5520;DHT22;2782;52.362;10.012;2023-08-06T03:06:20;20.60;87.80
5520;DHT22;2782;52.362;10.012;2023-08-06T03:07:21;20.60;87.90
5520;DHT22;2782;52.362;10.012;2023-08-06T03:08:24;20.50;87.70
5520;DHT22;2782;52.362;10.012;2023-08-06T03:09:25;20.50;87.70
5520;DHT22;2782;52.362;10.012;2023-08-06T03:10:27;20.50;87.70
5520;DHT22;2782;52.362;10.012;2023-08-06T03:11:28;20.60;87.90
5520;DHT22;2782;52.362;10.012;2023-08-06T03:12:29;20.60;87.90
5520;DHT22;2782;52.362;10.012;2023-08-06T03:13:30;20.60;87.80
5520;DHT22;2782;52.362;10.012;2023-08-06T03:14:31;20.50;87.80
5520;DHT22;2782;52.362;10.012;2023-08-06T03:15:32;20.60;87.90
5520;DHT22;2782;52.362;10.012;2023-08-06T03:16:33;20.60;87.90
5520;DHT22;2782;52.362;10.012;2023-08-06T03:17:35;20.50;87.80
5520;DHT22;2782;52.362;10.012;2023-08-06T03:18:35;20.60;87.80
5520;DHT22;2782;52.362;10.012;2023-08-06T03:19:37;20.60;87.90
5520;DHT22;2782;52.362;10.012;2023-08-06T03:20:38;20.50;87.70
5520;DHT22;2782;52.362;10.012;2023-08-06T03:21:39;20.60;87.80
5520;DHT22;2782;52.362;10.012;2023-08-06T03:22:40;20.60;87.80
5520;DHT22;2782;52.362;10.012;2023-08-06T03:23:43;20.60;87.80
5520;DHT22;2782;52.362;10.012;2023-08-06T03:24:50;20.50;87.80
5520;DHT22;2782;52.362;10.012;2023-08-06T03:25:51;20.60;87.90
5520;DHT22;2782;52.362;10.012;2023-08-06T03:26:52;20.50;87.80
5520;DHT22;2782;52.362;10.012;2023-08-06T03:27:54;20.50;87.90
5520;DHT22;2782;52.362;10.012;2023-08-06T03:28:54;20.50;87.80
5520;DHT22;2782;52.362;10.012;2023-08-06T03:29:56;20.50;87.80
5520;DHT22;2782;52.362;10.012;2023-08-06T03:31:00;20.50;87.80
5520;DHT22;2782;52.362;10.012;2023-08-06T03:32:01;20.50;87.80
5520;DHT22;2782;52.362;10.012;2023-08-06T03:33:02;20.60;87.90
5520;DHT22;2782;52.362;10.012;2023-08-06T03:34:04;20.50;87.70
5520;DHT22;2782;52.362;10.012;2023-08-06T03:35:05;20.60;87.90
5520;DHT22;2782;52.362;10.012;2023-08-06T03:36:07;20.50;87.70
5520;DHT22;2782;52.362;10.012;2023-08-06T03:37:09;20.50;87.80
5520;DHT22;2782;52.362;10.012;2023-08-06T03:38:09;20.50;87.80
5520;DHT22;2782;52.362;10.012;2023-08-06T03:39:12;20.50;87.70
5520;DHT22;2782;52.362;10.012;2023-08-06T03:40:14;20.50;87.70
5520;DHT22;2782;52.362;10.012;2023-08-06T03:41:16;20.50;87.70
5520;DHT22;2782;52.362;10.012;2023-08-06T03:42:16;20.50;87.70
5520;DHT22;2782;52.362;10.012;2023-08-06T03:43:18;20.50;87.70
5520;DHT22;2782;52.362;10.012;2023-08-06T03:44:19;20.50;87.70
5520;DHT22;2782;52.362;10.012;2023-08-06T03:45:20;20.50;87.80
5520;DHT22;2782;52.362;10.012;2023-08-06T03:46:21;20.50;87.70
5520;DHT22;2782;52.362;10.012;2023-08-06T03:47:23;20.50;87.70
5520;DHT22;2782;52.362;10.012;2023-08-06T03:48:23;20.50;87.80
5520;DHT22;2782;52.362;10.012;2023-08-06T03:49:25;20.50;87.90
5520;DHT22;2782;52.362;10.012;2023-08-06T03:50:26;20.50;87.80
5520;DHT22;2782;52.362;10.012;2023-08-06T03:51:27;20.50;87.80
5520;DHT22;2782;52.362;10.012;2023-08-06T03:52:28;20.50;87.80
5520;DHT22;2782;52.362;10.012;2023-08-06T03:53:30;20.50;87.80
5520;DHT22;2782;52.362;10.012;2023-08-06T03:54:32;20.50;87.80
5520;DHT22;2782;52.362;10.012;2023-08-06T03:55:33;20.50;87.70
5520;DHT22;2782;52.362;10.012;2023-08-06T03:56:34;20.50;87.80
5520;DHT22;2782;52.362;10.012;2023-08-06T03:57:35;20.50;87.80
5520;DHT22;2782;52.362;10.012;2023-08-06T03:58:37;20.60;87.90
5520;DHT22;2782;52.362;10.012;2023-08-06T03:59:37;20.50;87.80
5520;DHT22;2782;52.362;10.012;2023-08-06T04:00:39;20.50;87.80
5520;DHT22;2782;52.362;10.012;2023-08-06T04:01:40;20.50;88.00
5520;DHT22;2782;52.362;10.012;2023-08-06T04:02:41;20.50;87.80
5520;DHT22;2782;52.362;10.012;2023-08-06T04:03:42;20.50;87.80
5520;DHT22;2782;52.362;10.012;2023-08-06T04:04:44;20.50;87.80
5520;DHT22;2782;52.362;10.012;2023-08-06T04:05:45;20.50;87.80
5520;DHT22;2782;52.362;10.012;2023-08-06T04:06:46;20.50;87.80
5520;DHT22;2782;52.362;10.012;2023-08-06T04:07:47;20.50;88.00
5520;DHT22;2782;52.362;10.012;2023-08-06T04:08:49;20.50;87.80
5520;DHT22;2782;52.362;10.012;2023-08-06T04:09:56;20.50;87.80
5520;DHT22;2782;52.362;10.012;2023-08-06T04:10:59;20.50;87.80
5520;DHT22;2782;52.362;10.012;2023-08-06T04:11:59;20.50;87.90
5520;DHT22;2782;52.362;10.012;2023-08-06T04:13:02;20.50;87.90
5520;DHT22;2782;52.362;10.012;2023-08-06T04:14:02;20.50;87.80
5520;DHT22;2782;52.362;10.012;2023-08-06T04:15:05;20.50;87.90
5520;DHT22;2782;52.362;10.012;2023-08-06T04:16:06;20.50;87.90
5520;DHT22;2782;52.362;10.012;2023-08-06T04:17:07;20.50;88.00
5520;DHT22;2782;52.362;10.012;2023-08-06T04:18:08;20.50;88.20
5520;DHT22;2782;52.362;10.012;2023-08-06T04:19:10;20.50;88.30
5520;DHT22;2782;52.362;10.012;2023-08-06T04:20:11;20.50;88.00
5520;DHT22;2782;52.362;10.012;2023-08-06T04:21:12;20.50;88.10
5520;DHT22;2782;52.362;10.012;2023-08-06T04:22:13;20.50;88.10
5520;DHT22;2782;52.362;10.012;2023-08-06T04:23:14;20.50;88.10
5520;DHT22;2782;52.362;10.012;2023-08-06T04:24:16;20.50;88.00
5520;DHT22;2782;52.362;10.012;2023-08-06T04:25:18;20.50;88.10
5520;DHT22;2782;52.362;10.012;2023-08-06T04:26:21;20.50;88.20
5520;DHT22;2782;52.362;10.012;2023-08-06T04:27:22;20.50;88.20
5520;DHT22;2782;52.362;10.012;2023-08-06T04:28:23;20.50;88.20
5520;DHT22;2782;52.362;10.012;2023-08-06T04:29:24;20.50;88.20
5520;DHT22;2782;52.362;10.012;2023-08-06T04:30:26;20.50;88.10
5520;DHT22;2782;52.362;10.012;2023-08-06T04:31:26;20.50;88.20
5520;DHT22;2782;52.362;10.012;2023-08-06T04:32:30;20.50;88.20
5520;DHT22;2782;52.362;10.012;2023-08-06T04:33:31;20.50;88.20
5520;DHT22;2782;52.362;10.012;2023-08-06T04:34:32;20.50;88.10
5520;DHT22;2782;52.362;10.012;2023-08-06T04:35:33;20.50;88.20
5520;DHT22;2782;52.362;10.012;2023-08-06T04:36:34;20.50;88.20
5520;DHT22;2782;52.362;10.012;2023-08-06T04:37:36;20.50;88.10
5520;DHT22;2782;52.362;10.012;2023-08-06T04:38:36;20.50;88.00
5520;DHT22;2782;52.362;10.012;2023-08-06T04:39:38;20.50;88.10
5520;DHT22;2782;52.362;10.012;2023-08-06T04:40:41;20.60;88.20
5520;DHT22;2782;52.362;10.012;2023-08-06T04:41:42;20.50;88.00
5520;DHT22;2782;52.362;10.012;2023-08-06T04:42:43;20.50;88.00
5520;DHT22;2782;52.362;10.012;2023-08-06T04:43:44;20.50;87.90
5520;DHT22;2782;52.362;10.012;2023-08-06T04:44:45;20.50;88.00
5520;DHT22;2782;52.362;10.012;2023-08-06T04:45:47;20.50;88.10
5520;DHT22;2782;52.362;10.012;2023-08-06T04:46:47;20.50;88.00
5520;DHT22;2782;52.362;10.012;2023-08-06T04:47:49;20.50;88.10
5520;DHT22;2782;52.362;10.012;2023-08-06T04:48:50;20.50;88.10
5520;DHT22;2782;52.362;10.012;2023-08-06T04:49:51;20.50;88.20
5520;DHT22;2782;52.362;10.012;2023-08-06T04:50:52;20.50;88.20
5520;DHT22;2782;52.362;10.012;2023-08-06T04:51:55;20.50;88.20
5520;DHT22;2782;52.362;10.012;2023-08-06T04:52:55;20.50;88.30
5520;DHT22;2782;52.362;10.012;2023-08-06T04:53:57;20.50;88.20
5520;DHT22;2782;52.362;10.012;2023-08-06T04:54:58;20.50;88.20
5520;DHT22;2782;52.362;10.012;2023-08-06T04:56:01;20.50;88.30
5520;DHT22;2782;52.362;10.012;2023-08-06T04:57:01;20.50;88.30
5520;DHT22;2782;52.362;10.012;2023-08-06T04:58:03;20.50;88.30
5520;DHT22;2782;52.362;10.012;2023-08-06T04:59:04;20.50;88.20
5520;DHT22;2782;52.362;10.012;2023-08-06T05:00:07;20.50;88.30
5520;DHT22;2782;52.362;10.012;2023-08-06T05:01:08;20.50;88.30
5520;DHT22;2782;52.362;10.012;2023-08-06T05:02:09;20.50;88.40
5520;DHT22;2782;52.362;10.012;2023-08-06T05:03:10;20.50;88.20
5520;DHT22;2782;52.362;10.012;2023-08-06T05:04:12;20.50;88.30
5520;DHT22;2782;52.362;10.012;2023-08-06T05:05:13;20.50;88.30
5520;DHT22;2782;52.362;10.012;2023-08-06T05:06:13;20.50;88.30
5520;DHT22;2782;52.362;10.012;2023-08-06T05:07:15;20.50;88.30
5520;DHT22;2782;52.362;10.012;2023-08-06T05:08:16;20.50;88.30
5520;DHT22;2782;52.362;10.012;2023-08-06T05:09:18;20.50;88.30
5520;DHT22;2782;52.362;10.012;2023-08-06T05:10:18;20.50;88.20
5520;DHT22;2782;52.362;10.012;2023-08-06T05:11:20;20.50;88.20
5520;DHT22;2782;52.362;10.012;2023-08-06T05:12:22;20.50;88.30
5520;DHT22;2782;52.362;10.012;2023-08-06T05:13:23;20.50;88.40
5520;DHT22;2782;52.362;10.012;2023-08-06T05:14:25;20.50;88.30
5520;DHT22;2782;52.362;10.012;2023-08-06T05:15:26;20.50;88.30
5520;DHT22;2782;52.362;10.012;2023-08-06T05:16:28;20.50;88.30
5520;DHT22;2782;52.362;10.012;2023-08-06T05:17:28;20.50;88.30
5520;DHT22;2782;52.362;10.012;2023-08-06T05:18:30;20.50;88.90
5520;DHT22;2782;52.362;10.012;2023-08-06T05:19:31;20.50;88.30
5520;DHT22;2782;52.362;10.012;2023-08-06T05:20:36;20.50;88.20
5520;DHT22;2782;52.362;10.012;2023-08-06T05:21:37;20.50;88.20
5520;DHT22;2782;52.362;10.012;2023-08-06T05:22:38;20.50;88.20
5520;DHT22;2782;52.362;10.012;2023-08-06T05:23:39;20.50;88.30
5520;DHT22;2782;52.362;10.012;2023-08-06T05:24:40;20.50;88.30
5520;DHT22;2782;52.362;10.012;2023-08-06T05:25:42;20.50;88.30
5520;DHT22;2782;52.362;10.012;2023-08-06T05:26:44;20.50;88.20
5520;DHT22;2782;52.362;10.012;2023-08-06T05:27:47;20.50;88.30
5520;DHT22;2782;52.362;10.012;2023-08-06T05:28:47;20.50;88.20
5520;DHT22;2782;52.362;10.012;2023-08-06T05:29:49;20.50;88.20
5520;DHT22;2782;52.362;10.012;2023-08-06T05:30:50;20.50;88.20
5520;DHT22;2782;52.362;10.012;2023-08-06T05:31:51;20.50;88.10
5520;DHT22;2782;52.362;10.012;2023-08-06T05:32:52;20.50;88.10
5520;DHT22;2782;52.362;10.012;2023-08-06T05:33:54;20.50;88.10
5520;DHT22;2782;52.362;10.012;2023-08-06T05:34:54;20.50;88.00
5520;DHT22;2782;52.362;10.012;2023-08-06T05:35:56;20.50;88.00
5520;DHT22;2782;52.362;10.012;2023-08-06T05:36:57;20.50;88.00
5520;DHT22;2782;52.362;10.012;2023-08-06T05:37:58;20.50;88.00
5520;DHT22;2782;52.362;10.012;2023-08-06T05:38:59;20.50;88.00
5520;DHT22;2782;52.362;10.012;2023-08-06T05:40:01;20.50;88.10
5520;DHT22;2782;52.362;10.012;2023-08-06T05:41:02;20.50;88.00
5520;DHT22;2782;52.362;10.012;2023-08-06T05:42:06;20.50;88.00
5520;DHT22;2782;52.362;10.012;2023-08-06T05:43:07;20.50;88.00
5520;DHT22;2782;52.362;10.012;2023-08-06T05:44:08;20.50;88.00
5520;DHT22;2782;52.362;10.012;2023-08-06T05:45:09;20.50;87.90
5520;DHT22;2782;52.362;10.012;2023-08-06T05:46:11;20.50;87.90
5520;DHT22;2782;52.362;10.012;2023-08-06T05:47:12;20.60;88.00
5520;DHT22;2782;52.362;10.012;2023-08-06T05:48:13;20.50;87.80
5520;DHT22;2782;52.362;10.012;2023-08-06T05:49:14;20.50;87.90
5520;DHT22;2782;52.362;10.012;2023-08-06T05:50:17;20.50;87.90
5520;DHT22;2782;52.362;10.012;2023-08-06T05:51:17;20.50;87.90
5520;DHT22;2782;52.362;10.012;2023-08-06T05:52:19;20.50;87.90
5520;DHT22;2782;52.362;10.012;2023-08-06T05:53:20;20.50;87.90
5520;DHT22;2782;52.362;10.012;2023-08-06T05:54:22;20.50;88.00
5520;DHT22;2782;52.362;10.012;2023-08-06T05:55:22;20.50;88.00
5520;DHT22;2782;52.362;10.012;2023-08-06T05:56:24;20.50;88.00
5520;DHT22;2782;52.362;10.012;2023-08-06T05:57:26;20.50;88.00
5520;DHT22;2782;52.362;10.012;2023-08-06T05:58:28;20.50;88.00
5520;DHT22;2782;52.362;10.012;2023-08-06T05:59:29;20.50;87.90
5520;DHT22;2782;52.362;10.012;2023-08-06T06:00:31;20.50;87.90
5520;DHT22;2782;52.362;10.012;2023-08-06T06:01:31;20.50;87.90
5520;DHT22;2782;52.362;10.012;2023-08-06T06:02:33;20.50;87.90
5520;DHT22;2782;52.362;10.012;2023-08-06T06:03:34;20.50;87.90
5520;DHT22;2782;52.362;10.012;2023-08-06T06:04:36;20.50;88.30
5520;DHT22;2782;52.362;10.012;2023-08-06T06:05:38;20.50;87.90
5520;DHT22;2782;52.362;10.012;2023-08-06T06:06:40;20.50;87.90
5520;DHT22;2782;52.362;10.012;2023-08-06T06:07:42;20.50;87.90
5520;DHT22;2782;52.362;10.012;2023-08-06T06:08:42;20.60;87.90
5520;DHT22;2782;52.362;10.012;2023-08-06T06:09:44;20.60;88.00
5520;DHT22;2782;52.362;10.012;2023-08-06T06:10:45;20.60;87.90
5520;DHT22;2782;52.362;10.012;2023-08-06T06:11:46;20.60;87.90
5520;DHT22;2782;52.362;10.012;2023-08-06T06:12:50;20.60;87.90
5520;DHT22;2782;52.362;10.012;2023-08-06T06:13:51;20.60;88.00
5520;DHT22;2782;52.362;10.012;2023-08-06T06:14:53;20.60;88.00
5520;DHT22;2782;52.362;10.012;2023-08-06T06:15:54;20.60;87.90
5520;DHT22;2782;52.362;10.012;2023-08-06T06:16:56;20.60;87.90
5520;DHT22;2782;52.362;10.012;2023-08-06T06:17:57;20.60;87.90
5520;DHT22;2782;52.362;10.012;2023-08-06T06:18:59;20.60;87.80
5520;DHT22;2782;52.362;10.012;2023-08-06T06:19:59;20.60;87.70
5520;DHT22;2782;52.362;10.012;2023-08-06T06:21:00;20.60;87.70
5520;DHT22;2782;52.362;10.012;2023-08-06T06:22:02;20.60;87.70
5520;DHT22;2782;52.362;10.012;2023-08-06T06:23:02;20.60;87.60
5520;DHT22;2782;52.362;10.012;2023-08-06T06:24:04;20.60;87.60
5520;DHT22;2782;52.362;10.012;2023-08-06T06:25:06;20.60;87.60
5520;DHT22;2782;52.362;10.012;2023-08-06T06:26:08;20.60;87.40
5520;DHT22;2782;52.362;10.012;2023-08-06T06:27:08;20.60;87.30
5520;DHT22;2782;52.362;10.012;2023-08-06T06:28:11;20.60;87.20
5520;DHT22;2782;52.362;10.012;2023-08-06T06:29:12;20.60;87.10
5520;DHT22;2782;52.362;10.012;2023-08-06T06:30:13;20.70;87.20
5520;DHT22;2782;52.362;10.012;2023-08-06T06:31:14;20.60;87.10
5520;DHT22;2782;52.362;10.012;2023-08-06T06:32:16;20.60;87.10
5520;DHT22;2782;52.362;10.012;2023-08-06T06:33:17;20.60;87.10
5520;DHT22;2782;52.362;10.012;2023-08-06T06:34:19;20.70;87.10
5520;DHT22;2782;52.362;10.012;2023-08-06T06:35:19;20.60;87.10
5520;DHT22;2782;52.362;10.012;2023-08-06T06:36:21;20.70;87.10